Flight Track Log - Related Links

Times and Time Zones

All times are in EDT time to prevent confusion due to time zone crossing. See the N42HN flight status page for this flight to view local times or setup timezone preferences in your user account.


Time Position Orientation Groundspeed Altitude Reporting Facility
EDT Latitude Longitude Course Direction KTS MPH feet Rate Location/Type
Wed 03:00:15 PM 29.6644 -95.2617 354° North 199 229 800  Level Houston Center
Wed 03:00:58 PM 29.7047 -95.2664 354° North 213 245 2,900 3,346 Climbing Houston Center
Wed 03:01:59 PM 29.7650 -95.2831 347° North 230 265 6,600 3,197 Climbing Houston Center
Wed 03:03:00 PM 29.8325 -95.3086 342° North 255 293 9,400 2,434 Climbing Houston Center
Wed 03:04:22 PM 29.9261 -95.2725 18° North 280 322 12,400 2,125 Climbing Houston Center
Wed 03:05:24 PM 30.0022 -95.2308 25° Northeast 298 343 14,500 1,984 Climbing Houston Center
Wed 03:06:26 PM 30.0728 -95.1678 38° Northeast 317 365 16,500 1,839 Climbing Houston Center
Wed 03:07:28 PM 30.1422 -95.0978 41° Northeast 328 377 18,300 1,694 Climbing Houston Center
Wed 03:08:30 PM 30.2164 -95.0319 37° Northeast 335 386 20,000 1,839 Climbing Houston Center
Wed 03:09:32 PM 30.3044 -94.9433 41° Northeast 348 400 22,100 1,887 Climbing Houston Center
Wed 03:10:34 PM 30.3808 -94.8739 38° Northeast 350 403 23,900 1,597 Climbing Houston Center
Wed 03:11:36 PM 30.4542 -94.7981 42° Northeast 351 404 25,400 1,355 Climbing Houston Center
Wed 03:12:38 PM 30.5336 -94.7283 37° Northeast 359 413 26,700 1,016 Climbing Houston Center
Wed 03:13:40 PM 30.6119 -94.6483 41° Northeast 371 427 27,500 871 Climbing Houston Center
Wed 03:14:42 PM 30.6953 -94.5722 38° Northeast 381 438 28,500 1,210 Climbing Houston Center
Wed 03:15:44 PM 30.7939 -94.4767 40° Northeast 385 443 30,000 1,258 Climbing Houston Center
Wed 03:16:46 PM 30.8750 -94.3975 40° Northeast 384 442 31,100 871 Climbing Houston Center
Wed 03:17:48 PM 30.9586 -94.3200 38° Northeast 386 444 31,800 683 Climbing Houston Center
Wed 03:18:49 PM 31.0414 -94.2347 41° Northeast 397 457 32,500 780 Climbing Houston Center
Wed 03:19:51 PM 31.1300 -94.1528 38° Northeast 406 467 33,400 968 Climbing Houston Center
Wed 03:20:53 PM 31.2331 -94.0506 40° Northeast 406 467 34,500 1,065 Climbing Houston Center
Wed 03:21:55 PM 31.3186 -93.9667 40° Northeast 403 464 35,600 1,016 Climbing Houston Center
Wed 03:22:57 PM 31.4036 -93.8842 40° Northeast 399 459 36,600 871 Climbing Houston Center
Wed 03:23:59 PM 31.4858 -93.8025 40° Northeast 391 450 37,400 726 Climbing Houston Center
Wed 03:25:01 PM 31.5706 -93.7203 40° Northeast 395 455 38,100 581 Climbing Houston Center
Wed 03:26:03 PM 31.6536 -93.6356 41° Northeast 396 456 38,600 435 Climbing Houston Center
Wed 03:27:05 PM 31.7492 -93.5442 39° Northeast 401 461 39,000 194 Climbing Houston Center
Wed 03:28:07 PM 31.8336 -93.4581 41° Northeast 402 463 39,000  Level Houston Center
Wed 03:29:09 PM 31.9208 -93.3711 40° Northeast 407 468 39,000  Level Houston Center
Wed 03:30:11 PM 32.0083 -93.2847 40° Northeast 409 471 39,000  Level Houston Center
Wed 03:31:13 PM 32.1111 -93.1778 41° Northeast 411 473 39,000  Level Houston Center
Wed 03:31:57 PM 32.1714 -93.1186 40° Northeast 407 468 39,000  Level Fort Worth Center
Wed 03:32:57 PM 32.2583 -93.0358 39° Northeast 407 468 39,000  Level Fort Worth Center
Wed 03:33:57 PM 32.3453 -92.9506 40° Northeast 407 468 39,000  Level Fort Worth Center
Wed 03:34:57 PM 32.4314 -92.8503 44° Northeast 416 479 39,000  Level Fort Worth Center
Wed 03:36:29 PM 32.5747 -92.7092 40° Northeast 428 493 39,000  Level Memphis Center
Wed 03:37:29 PM 32.6619 -92.6200 41° Northeast 417 480 39,000  Level Memphis Center
Wed 03:38:28 PM 32.7492 -92.5333 40° Northeast 417 480 39,000  Level Memphis Center
Wed 03:39:29 PM 32.8406 -92.4417 40° Northeast 412 474 39,000  Level Memphis Center
Wed 03:40:28 PM 32.9256 -92.3497 42° Northeast 412 474 39,000  Level Memphis Center
Wed 03:41:28 PM 33.0186 -92.2600 39° Northeast 412 474 39,000  Level Memphis Center
Wed 03:42:29 PM 33.1078 -92.1653 42° Northeast 412 474 39,000  Level Memphis Center
Wed 03:43:28 PM 33.1989 -92.0753 40° Northeast 412 474 39,000  Level Memphis Center
Wed 03:44:28 PM 33.2856 -91.9825 42° Northeast 412 474 39,000  Level Memphis Center
Wed 03:45:29 PM 33.3786 -91.8897 40° Northeast 417 480 39,000  Level Memphis Center
Wed 03:46:28 PM 33.4694 -91.7942 41° Northeast 417 480 39,000  Level Memphis Center
Wed 03:47:29 PM 33.5372 -91.7206 42° Northeast 417 480 39,000  Level Memphis Center
Wed 03:48:28 PM 33.6342 -91.6147 42° Northeast 417 480 39,000  Level Memphis Center
Wed 03:49:28 PM 33.7250 -91.5186 41° Northeast 422 486 39,000  Level Memphis Center
Wed 03:50:28 PM 33.8133 -91.4247 41° Northeast 422 486 39,000  Level Memphis Center
Wed 03:51:29 PM 33.9039 -91.3283 41° Northeast 422 486 39,000  Level Memphis Center
Wed 03:52:29 PM 34.0028 -91.2292 40° Northeast 422 486 39,000  Level Memphis Center
Wed 03:53:28 PM 34.0911 -91.1297 43° Northeast 422 486 39,000  Level Memphis Center
Wed 03:54:28 PM 34.1833 -91.0375 40° Northeast 422 486 39,000  Level Memphis Center
Wed 03:55:28 PM 34.2694 -90.9403 43° Northeast 422 486 39,000  Level Memphis Center
Wed 03:56:29 PM 34.3617 -90.8453 40° Northeast 427 491 39,000  Level Memphis Center
Wed 03:57:28 PM 34.4497 -90.7475 42° Northeast 427 491 39,000  Level Memphis Center
Wed 03:58:29 PM 34.5375 -90.6522 42° Northeast 422 486 39,000  Level Memphis Center
Wed 03:59:29 PM 34.6275 -90.5564 41° Northeast 422 486 39,000  Level Memphis Center
Wed 04:00:29 PM 34.7153 -90.4608 42° Northeast 422 486 39,000  Level Memphis Center
Wed 04:01:29 PM 34.7967 -90.3747 41° Northeast 422 486 39,000  Level Memphis Center
Wed 04:02:29 PM 34.8842 -90.2786 42° Northeast 422 486 39,000  Level Memphis Center
Wed 04:03:29 PM 34.9739 -90.1822 41° Northeast 422 486 39,000  Level Memphis Center
Wed 04:04:29 PM 35.0633 -90.0831 42° Northeast 422 486 39,000  Level Memphis Center
Wed 04:05:29 PM 35.1592 -89.9761 42° Northeast 422 486 39,000  Level Memphis Center
Wed 04:06:29 PM 35.2483 -89.8764 42° Northeast 427 491 39,000  Level Memphis Center
Wed 04:07:29 PM 35.3356 -89.7767 43° Northeast 427 491 39,000  Level Memphis Center
Wed 04:08:29 PM 35.4228 -89.6767 43° Northeast 421 484 39,000  Level Memphis Center
Wed 04:09:29 PM 35.5139 -89.5764 42° Northeast 426 490 39,000  Level Memphis Center
Wed 04:10:29 PM 35.6008 -89.4786 42° Northeast 419 482 39,000  Level Memphis Center
Wed 04:11:29 PM 35.6794 -89.3908 42° Northeast 419 482 39,000  Level Memphis Center
Wed 04:12:29 PM 35.7600 -89.2903 45° Northeast 419 482 39,000  Level Memphis Center
Wed 04:13:29 PM 35.8486 -89.1917 42° Northeast 419 482 39,000  Level Memphis Center
Wed 04:14:28 PM 35.9372 -89.0906 43° Northeast 424 488 39,000  Level Memphis Center
Wed 04:15:28 PM 36.0361 -88.9786 42° Northeast 424 488 39,000  Level Memphis Center
Wed 04:16:28 PM 36.1247 -88.8794 42° Northeast 424 488 39,000  Level Memphis Center
Wed 04:17:28 PM 36.2111 -88.7750 44° Northeast 424 488 39,000  Level Memphis Center
Wed 04:18:29 PM 36.3014 -88.6781 41° Northeast 424 488 39,000  Level Memphis Center
Wed 04:19:29 PM 36.3875 -88.5756 44° Northeast 424 488 39,000  Level Memphis Center
Wed 04:20:28 PM 36.4800 -88.4756 41° Northeast 424 488 39,000  Level Memphis Center
Wed 04:21:28 PM 36.5658 -88.3728 44° Northeast 424 488 39,000  Level Memphis Center
Wed 04:22:28 PM 36.6539 -88.2722 42° Northeast 424 488 39,000  Level Memphis Center
Wed 04:23:28 PM 36.7397 -88.1717 43° Northeast 424 488 39,000  Level Memphis Center
Wed 04:24:29 PM 36.8192 -88.0789 43° Northeast 424 488 39,000  Level Memphis Center
Wed 04:25:28 PM 36.9089 -87.9750 43° Northeast 430 495 39,000  Level Memphis Center
Wed 04:27:11 PM 37.0558 -87.7958 44° Northeast 439 505 39,000  Level Indianapolis Center
Wed 04:28:13 PM 37.1456 -87.6892 43° Northeast 439 505 39,000  Level Indianapolis Center
Wed 04:29:15 PM 37.2339 -87.5844 43° Northeast 434 499 39,000  Level Indianapolis Center
Wed 04:30:17 PM 37.3372 -87.4581 44° Northeast 437 503 39,000  Level Indianapolis Center
Wed 04:31:19 PM 37.4264 -87.3536 43° Northeast 434 499 39,000  Level Indianapolis Center
Wed 04:32:21 PM 37.5142 -87.2447 45° Northeast 437 503 39,000  Level Indianapolis Center
Wed 04:33:23 PM 37.6058 -87.1364 43° Northeast 437 503 39,000  Level Indianapolis Center
Wed 04:34:25 PM 37.6922 -87.0311 44° Northeast 433 498 39,000  Level Indianapolis Center
Wed 04:35:27 PM 37.7803 -86.9242 44° Northeast 437 503 39,000 -387 Level Indianapolis Center
Wed 04:36:29 PM 37.8694 -86.8181 43° Northeast 443 510 38,200 -1,016 Descending Indianapolis Center
Wed 04:37:31 PM 37.9769 -86.6822 45° Northeast 457 526 36,900 -1,355 Descending Indianapolis Center
Wed 04:38:33 PM 38.0664 -86.5731 44° Northeast 451 519 35,400 -1,258 Descending Indianapolis Center
Wed 04:39:35 PM 38.1542 -86.4667 44° Northeast 443 510 34,300 -1,065 Descending Indianapolis Center
Wed 04:40:37 PM 38.2367 -86.3603 45° Northeast 426 490 33,200 -1,344 Descending Indianapolis Center
Wed 04:41:40 PM 38.3244 -86.2567 43° Northeast 431 496 31,500 -1,632 Descending Indianapolis Center
Wed 04:42:42 PM 38.4106 -86.1453 45° Northeast 441 507 29,800 -1,403 Descending Indianapolis Center
Wed 04:43:44 PM 38.5167 -86.0158 44° Northeast 436 502 28,600 -1,161 Descending Indianapolis Center
Wed 04:44:46 PM 38.6019 -85.9072 45° Northeast 432 497 27,400 -1,355 Descending Indianapolis Center
Wed 04:45:48 PM 38.6844 -85.8031 45° Northeast 433 498 25,800 -1,645 Descending Indianapolis Center
Wed 04:46:50 PM 38.7714 -85.6944 44° Northeast 438 504 24,000 -968 Descending Indianapolis Center
Wed 04:47:52 PM 38.8553 -85.5844 46° Northeast 436 502 23,800 -1,065 Descending Indianapolis Center
Wed 04:48:54 PM 38.9578 -85.4569 44° Northeast 434 499 21,800 -1,984 Descending Indianapolis Center
Wed 04:49:56 PM 39.0431 -85.3439 46° Northeast 441 507 19,700 -1,742 Descending Indianapolis Center
Wed 04:50:58 PM 39.1278 -85.2369 44° Northeast 434 499 18,200 -1,694 Descending Indianapolis Center
Wed 04:52:00 PM 39.2064 -85.1328 46° Northeast 416 479 16,200 -1,935 Descending Indianapolis Center
Wed 04:53:02 PM 39.2828 -85.0339 45° Northeast 398 458 14,200 -1,983 Descending Indianapolis Center
Wed 04:54:01 PM 39.3656 -84.9283 45° Northeast 347 399 12,200 -1,984 Descending Indianapolis Center
Wed 04:55:06 PM 39.4292 -84.8519 43° Northeast 321 369 10,100 -2,173 Descending Indianapolis Center
Wed 04:56:08 PM 39.4833 -84.7781 46° Northeast 302 348 7,600 -1,488 Descending Indianapolis Center
Wed 04:57:11 PM 39.5228 -84.6864 61° Northeast 296 341 7,000 -288 Descending Indianapolis Center
Wed 04:58:13 PM 39.5664 -84.5975 58° Northeast 294 338 7,000  Level Indianapolis Center
Wed 04:59:15 PM 39.6200 -84.5003 54° Northeast 285 328 7,000 -97 Level Indianapolis Center
Wed 05:00:17 PM 39.6614 -84.4139 58° Northeast 283 326 6,800 -462 Descending Indianapolis Center
Wed 05:01:25 PM 39.7114 -84.3119 57° Northeast 285 328 6,000 -387 Descending Indianapolis Center
Wed 05:02:21 PM 39.7422 -84.2411 60° Northeast 284 327 6,000  Level Indianapolis Center
Wed 05:03:39 PM 39.8050 -84.1242 55° Northeast 277 319 6,000 -236 Level Indianapolis Center
Wed 05:04:28 PM 39.8378 -84.0536 59° Northeast 273 314 5,500 -818 Descending Indianapolis Center
Wed 05:05:29 PM 39.8867 -83.9886 46° Northeast 246 283 4,500 -857 Descending Indianapolis Center
Wed 05:06:41 PM 39.9514 -83.9917 358° North 179 206 3,600 -793 Descending Indianapolis Center
Wed 05:07:30 PM 39.9794 -84.0267 316° Northwest 194 223 2,900 -517 Descending Indianapolis Center
Wed 05:08:37 PM 39.9575 -84.0939 247° West 173 199 2,600 -344 Descending Indianapolis Center
Wed 05:09:32 PM 39.9358 -84.1394 238° Southwest 152 175 2,200 -590 Descending Indianapolis Center
Wed 05:10:39 PM 39.9125 -84.1817 234° Southwest 131 151 1,400 -716 Descending Indianapolis Center

Login

Don't have an account? Register now (free) for customized features, flight alerts, and more!